sensor_id;sensor_type;location;lat;lon;timestamp;P1;durP1;ratioP1;P2;durP2;ratioP2
10005;SDS011;5042;42.626;23.382;2022-08-30T00:00:49;5.10;;;4.60;;
10005;SDS011;5042;42.626;23.382;2022-08-30T00:03:27;6.63;;;5.20;;
10005;SDS011;5042;42.626;23.382;2022-08-30T00:05:55;5.93;;;5.35;;
10005;SDS011;5042;42.626;23.382;2022-08-30T00:08:22;4.65;;;4.18;;
10005;SDS011;5042;42.626;23.382;2022-08-30T00:10:50;4.82;;;4.40;;
10005;SDS011;5042;42.626;23.382;2022-08-30T00:13:19;6.15;;;5.30;;
10005;SDS011;5042;42.626;23.382;2022-08-30T00:15:47;5.65;;;5.07;;
10005;SDS011;5042;42.626;23.382;2022-08-30T00:18:15;5.40;;;4.60;;
10005;SDS011;5042;42.626;23.382;2022-08-30T00:20:43;4.97;;;4.45;;
10005;SDS011;5042;42.626;23.382;2022-08-30T00:23:11;6.53;;;5.28;;
10005;SDS011;5042;42.626;23.382;2022-08-30T00:25:39;5.78;;;5.18;;
10005;SDS011;5042;42.626;23.382;2022-08-30T00:28:07;6.05;;;5.45;;
10005;SDS011;5042;42.626;23.382;2022-08-30T00:30:35;6.45;;;5.30;;
10005;SDS011;5042;42.626;23.382;2022-08-30T00:33:02;7.00;;;4.88;;
10005;SDS011;5042;42.626;23.382;2022-08-30T00:35:29;7.75;;;5.20;;
10005;SDS011;5042;42.626;23.382;2022-08-30T00:37:55;5.72;;;5.20;;
10005;SDS011;5042;42.626;23.382;2022-08-30T00:40:23;9.13;;;5.35;;
10005;SDS011;5042;42.626;23.382;2022-08-30T00:42:52;5.45;;;4.95;;
10005;SDS011;5042;42.626;23.382;2022-08-30T00:45:23;5.63;;;5.07;;
10005;SDS011;5042;42.626;23.382;2022-08-30T00:47:52;6.00;;;5.18;;
10005;SDS011;5042;42.626;23.382;2022-08-30T00:50:20;6.00;;;5.40;;
10005;SDS011;5042;42.626;23.382;2022-08-30T00:52:50;5.95;;;5.07;;
10005;SDS011;5042;42.626;23.382;2022-08-30T00:55:21;5.72;;;5.22;;
10005;SDS011;5042;42.626;23.382;2022-08-30T00:57:49;6.22;;;5.10;;
10005;SDS011;5042;42.626;23.382;2022-08-30T01:00:18;6.20;;;5.40;;
10005;SDS011;5042;42.626;23.382;2022-08-30T01:02:46;6.07;;;5.38;;
10005;SDS011;5042;42.626;23.382;2022-08-30T01:05:13;5.93;;;4.90;;
10005;SDS011;5042;42.626;23.382;2022-08-30T01:07:41;7.50;;;5.05;;
10005;SDS011;5042;42.626;23.382;2022-08-30T01:10:09;5.60;;;5.00;;
10005;SDS011;5042;42.626;23.382;2022-08-30T01:12:39;7.03;;;5.18;;
10005;SDS011;5042;42.626;23.382;2022-08-30T01:15:09;5.82;;;4.85;;
10005;SDS011;5042;42.626;23.382;2022-08-30T01:17:38;6.65;;;5.82;;
10005;SDS011;5042;42.626;23.382;2022-08-30T01:20:08;6.20;;;5.05;;
10005;SDS011;5042;42.626;23.382;2022-08-30T01:22:38;5.97;;;5.25;;
10005;SDS011;5042;42.626;23.382;2022-08-30T01:25:11;7.80;;;4.97;;
10005;SDS011;5042;42.626;23.382;2022-08-30T01:27:40;6.00;;;5.43;;
10005;SDS011;5042;42.626;23.382;2022-08-30T01:30:11;8.38;;;5.80;;
10005;SDS011;5042;42.626;23.382;2022-08-30T01:32:39;6.18;;;5.43;;
10005;SDS011;5042;42.626;23.382;2022-08-30T01:35:09;5.93;;;5.32;;
10005;SDS011;5042;42.626;23.382;2022-08-30T01:37:37;6.82;;;5.38;;
10005;SDS011;5042;42.626;23.382;2022-08-30T01:40:05;6.97;;;5.35;;
10005;SDS011;5042;42.626;23.382;2022-08-30T01:42:34;7.38;;;5.55;;
10005;SDS011;5042;42.626;23.382;2022-08-30T01:45:01;6.07;;;5.43;;
10005;SDS011;5042;42.626;23.382;2022-08-30T01:47:28;7.60;;;6.07;;
10005;SDS011;5042;42.626;23.382;2022-08-30T01:49:55;6.10;;;5.50;;
10005;SDS011;5042;42.626;23.382;2022-08-30T01:52:22;7.28;;;5.75;;
10005;SDS011;5042;42.626;23.382;2022-08-30T01:54:50;6.30;;;5.28;;
10005;SDS011;5042;42.626;23.382;2022-08-30T01:57:18;6.82;;;6.03;;
10005;SDS011;5042;42.626;23.382;2022-08-30T01:59:48;6.75;;;5.63;;
10005;SDS011;5042;42.626;23.382;2022-08-30T02:02:15;6.30;;;5.63;;
10005;SDS011;5042;42.626;23.382;2022-08-30T02:04:45;7.43;;;5.95;;
10005;SDS011;5042;42.626;23.382;2022-08-30T02:07:11;6.55;;;5.90;;
10005;SDS011;5042;42.626;23.382;2022-08-30T02:09:38;6.60;;;5.32;;
10005;SDS011;5042;42.626;23.382;2022-08-30T02:12:06;7.25;;;5.72;;
10005;SDS011;5042;42.626;23.382;2022-08-30T02:14:33;7.30;;;5.68;;
10005;SDS011;5042;42.626;23.382;2022-08-30T02:17:02;7.05;;;5.50;;
10005;SDS011;5042;42.626;23.382;2022-08-30T02:19:29;6.78;;;6.07;;
10005;SDS011;5042;42.626;23.382;2022-08-30T02:21:56;6.40;;;5.80;;
10005;SDS011;5042;42.626;23.382;2022-08-30T02:24:23;6.55;;;5.53;;
10005;SDS011;5042;42.626;23.382;2022-08-30T02:26:50;7.00;;;6.18;;
10005;SDS011;5042;42.626;23.382;2022-08-30T02:29:18;8.30;;;6.80;;
10005;SDS011;5042;42.626;23.382;2022-08-30T02:31:45;7.45;;;6.50;;
10005;SDS011;5042;42.626;23.382;2022-08-30T02:34:14;8.90;;;7.35;;
10005;SDS011;5042;42.626;23.382;2022-08-30T02:36:41;7.25;;;6.10;;
10005;SDS011;5042;42.626;23.382;2022-08-30T02:39:09;7.70;;;6.78;;
10005;SDS011;5042;42.626;23.382;2022-08-30T02:41:37;8.07;;;6.22;;
10005;SDS011;5042;42.626;23.382;2022-08-30T02:44:04;7.53;;;6.63;;
10005;SDS011;5042;42.626;23.382;2022-08-30T02:46:31;7.25;;;6.55;;
10005;SDS011;5042;42.626;23.382;2022-08-30T02:48:58;9.30;;;6.63;;
10005;SDS011;5042;42.626;23.382;2022-08-30T02:51:27;7.45;;;6.68;;
10005;SDS011;5042;42.626;23.382;2022-08-30T02:53:53;8.27;;;6.75;;
10005;SDS011;5042;42.626;23.382;2022-08-30T02:56:20;8.57;;;6.80;;
10005;SDS011;5042;42.626;23.382;2022-08-30T02:58:47;7.97;;;6.22;;
10005;SDS011;5042;42.626;23.382;2022-08-30T03:01:14;8.55;;;6.50;;
10005;SDS011;5042;42.626;23.382;2022-08-30T03:03:42;7.60;;;6.50;;
10005;SDS011;5042;42.626;23.382;2022-08-30T03:06:12;8.05;;;6.40;;
10005;SDS011;5042;42.626;23.382;2022-08-30T03:08:40;8.35;;;6.55;;
10005;SDS011;5042;42.626;23.382;2022-08-30T03:11:07;8.82;;;6.78;;
10005;SDS011;5042;42.626;23.382;2022-08-30T03:13:34;6.65;;;5.40;;
10005;SDS011;5042;42.626;23.382;2022-08-30T03:18:46;7.40;;;6.20;;
10005;SDS011;5042;42.626;23.382;2022-08-30T03:21:15;8.02;;;6.18;;
10005;SDS011;5042;42.626;23.382;2022-08-30T03:23:43;8.52;;;6.15;;
10005;SDS011;5042;42.626;23.382;2022-08-30T03:26:10;6.90;;;6.13;;
10005;SDS011;5042;42.626;23.382;2022-08-30T03:28:39;7.00;;;6.00;;
10005;SDS011;5042;42.626;23.382;2022-08-30T03:31:07;7.80;;;6.20;;
10005;SDS011;5042;42.626;23.382;2022-08-30T03:33:34;6.97;;;6.28;;
10005;SDS011;5042;42.626;23.382;2022-08-30T03:36:01;7.15;;;6.35;;
10005;SDS011;5042;42.626;23.382;2022-08-30T03:38:29;7.00;;;6.22;;
10005;SDS011;5042;42.626;23.382;2022-08-30T03:40:57;8.10;;;5.85;;
10005;SDS011;5042;42.626;23.382;2022-08-30T03:43:24;8.18;;;6.43;;
10005;SDS011;5042;42.626;23.382;2022-08-30T03:45:51;6.55;;;5.85;;
10005;SDS011;5042;42.626;23.382;2022-08-30T03:48:18;9.95;;;6.32;;
10005;SDS011;5042;42.626;23.382;2022-08-30T03:50:45;8.57;;;7.00;;
10005;SDS011;5042;42.626;23.382;2022-08-30T03:53:12;7.85;;;6.50;;
10005;SDS011;5042;42.626;23.382;2022-08-30T03:55:39;9.55;;;7.32;;
10005;SDS011;5042;42.626;23.382;2022-08-30T03:58:07;8.20;;;6.85;;
10005;SDS011;5042;42.626;23.382;2022-08-30T04:00:34;7.45;;;6.57;;
10005;SDS011;5042;42.626;23.382;2022-08-30T04:03:01;8.13;;;6.68;;
10005;SDS011;5042;42.626;23.382;2022-08-30T04:05:28;9.85;;;6.95;;
10005;SDS011;5042;42.626;23.382;2022-08-30T04:07:55;8.07;;;6.85;;
10005;SDS011;5042;42.626;23.382;2022-08-30T04:10:22;10.32;;;8.27;;
10005;SDS011;5042;42.626;23.382;2022-08-30T04:12:49;10.02;;;7.47;;
10005;SDS011;5042;42.626;23.382;2022-08-30T04:15:17;8.65;;;6.75;;
10005;SDS011;5042;42.626;23.382;2022-08-30T04:17:45;8.30;;;6.75;;
10005;SDS011;5042;42.626;23.382;2022-08-30T04:20:12;9.40;;;7.07;;
10005;SDS011;5042;42.626;23.382;2022-08-30T04:22:39;10.40;;;7.30;;
10005;SDS011;5042;42.626;23.382;2022-08-30T04:25:07;11.05;;;8.10;;
10005;SDS011;5042;42.626;23.382;2022-08-30T04:27:34;10.82;;;7.68;;
10005;SDS011;5042;42.626;23.382;2022-08-30T04:30:01;8.35;;;7.30;;
10005;SDS011;5042;42.626;23.382;2022-08-30T04:32:30;10.50;;;7.85;;
10005;SDS011;5042;42.626;23.382;2022-08-30T04:34:59;8.80;;;7.43;;
10005;SDS011;5042;42.626;23.382;2022-08-30T04:37:27;9.32;;;7.68;;
10005;SDS011;5042;42.626;23.382;2022-08-30T04:39:54;9.65;;;7.63;;
10005;SDS011;5042;42.626;23.382;2022-08-30T04:42:24;8.27;;;7.05;;
10005;SDS011;5042;42.626;23.382;2022-08-30T04:44:52;8.02;;;7.10;;
10005;SDS011;5042;42.626;23.382;2022-08-30T04:47:19;8.00;;;6.70;;
10005;SDS011;5042;42.626;23.382;2022-08-30T04:49:47;7.80;;;6.63;;
10005;SDS011;5042;42.626;23.382;2022-08-30T04:52:14;9.80;;;6.78;;
10005;SDS011;5042;42.626;23.382;2022-08-30T04:54:40;9.40;;;7.88;;
10005;SDS011;5042;42.626;23.382;2022-08-30T04:57:07;7.80;;;6.93;;
10005;SDS011;5042;42.626;23.382;2022-08-30T04:59:34;10.07;;;7.05;;
10005;SDS011;5042;42.626;23.382;2022-08-30T05:02:01;10.02;;;7.20;;
10005;SDS011;5042;42.626;23.382;2022-08-30T05:04:28;9.82;;;8.18;;
10005;SDS011;5042;42.626;23.382;2022-08-30T05:06:56;8.77;;;7.50;;
10005;SDS011;5042;42.626;23.382;2022-08-30T05:09:23;10.15;;;7.65;;
10005;SDS011;5042;42.626;23.382;2022-08-30T05:11:49;10.48;;;6.80;;
10005;SDS011;5042;42.626;23.382;2022-08-30T05:14:16;8.68;;;7.40;;
10005;SDS011;5042;42.626;23.382;2022-08-30T05:16:43;8.80;;;7.03;;
10005;SDS011;5042;42.626;23.382;2022-08-30T05:19:10;10.73;;;8.13;;
10005;SDS011;5042;42.626;23.382;2022-08-30T05:21:37;8.30;;;7.38;;
10005;SDS011;5042;42.626;23.382;2022-08-30T05:24:07;8.32;;;6.90;;
10005;SDS011;5042;42.626;23.382;2022-08-30T05:26:34;9.40;;;6.13;;
10005;SDS011;5042;42.626;23.382;2022-08-30T05:29:04;8.43;;;6.55;;
10005;SDS011;5042;42.626;23.382;2022-08-30T05:31:31;7.20;;;6.50;;
10005;SDS011;5042;42.626;23.382;2022-08-30T05:34:00;8.45;;;7.20;;
10005;SDS011;5042;42.626;23.382;2022-08-30T05:36:28;10.43;;;7.22;;
10005;SDS011;5042;42.626;23.382;2022-08-30T05:38:56;8.82;;;7.53;;
10005;SDS011;5042;42.626;23.382;2022-08-30T05:41:25;8.52;;;7.07;;
10005;SDS011;5042;42.626;23.382;2022-08-30T05:43:52;9.75;;;8.23;;
10005;SDS011;5042;42.626;23.382;2022-08-30T05:46:20;11.93;;;8.43;;
10005;SDS011;5042;42.626;23.382;2022-08-30T05:48:47;10.82;;;7.85;;
10005;SDS011;5042;42.626;23.382;2022-08-30T05:51:16;11.20;;;8.48;;
10005;SDS011;5042;42.626;23.382;2022-08-30T05:53:44;10.77;;;7.88;;
10005;SDS011;5042;42.626;23.382;2022-08-30T05:56:13;10.70;;;7.82;;
10005;SDS011;5042;42.626;23.382;2022-08-30T05:58:42;9.77;;;7.90;;
10005;SDS011;5042;42.626;23.382;2022-08-30T06:01:17;8.95;;;7.32;;
10005;SDS011;5042;42.626;23.382;2022-08-30T06:03:44;10.40;;;7.97;;
10005;SDS011;5042;42.626;23.382;2022-08-30T06:06:11;8.68;;;7.65;;
10005;SDS011;5042;42.626;23.382;2022-08-30T06:08:38;8.45;;;7.53;;
10005;SDS011;5042;42.626;23.382;2022-08-30T06:11:05;14.48;;;7.97;;
10005;SDS011;5042;42.626;23.382;2022-08-30T06:13:32;10.57;;;8.13;;
10005;SDS011;5042;42.626;23.382;2022-08-30T06:16:00;8.95;;;7.38;;
10005;SDS011;5042;42.626;23.382;2022-08-30T06:18:27;9.90;;;7.78;;
10005;SDS011;5042;42.626;23.382;2022-08-30T06:20:54;10.95;;;7.78;;
10005;SDS011;5042;42.626;23.382;2022-08-30T06:23:21;9.90;;;7.32;;
10005;SDS011;5042;42.626;23.382;2022-08-30T06:25:48;9.82;;;7.80;;
10005;SDS011;5042;42.626;23.382;2022-08-30T06:28:15;11.65;;;8.68;;
10005;SDS011;5042;42.626;23.382;2022-08-30T06:30:42;9.15;;;7.82;;
10005;SDS011;5042;42.626;23.382;2022-08-30T06:33:10;9.85;;;7.57;;
10005;SDS011;5042;42.626;23.382;2022-08-30T06:35:37;9.52;;;7.22;;
10005;SDS011;5042;42.626;23.382;2022-08-30T06:38:04;9.27;;;7.30;;
10005;SDS011;5042;42.626;23.382;2022-08-30T06:40:31;10.40;;;8.05;;
10005;SDS011;5042;42.626;23.382;2022-08-30T06:42:58;10.57;;;8.05;;
10005;SDS011;5042;42.626;23.382;2022-08-30T06:45:25;8.70;;;7.03;;
10005;SDS011;5042;42.626;23.382;2022-08-30T06:47:51;10.30;;;7.70;;
10005;SDS011;5042;42.626;23.382;2022-08-30T06:50:20;10.73;;;7.57;;
10005;SDS011;5042;42.626;23.382;2022-08-30T06:52:47;9.13;;;7.32;;
10005;SDS011;5042;42.626;23.382;2022-08-30T06:55:14;9.48;;;7.70;;
10005;SDS011;5042;42.626;23.382;2022-08-30T06:57:42;9.60;;;7.57;;
10005;SDS011;5042;42.626;23.382;2022-08-30T07:00:11;10.15;;;7.20;;
10005;SDS011;5042;42.626;23.382;2022-08-30T07:02:40;10.40;;;8.18;;
10005;SDS011;5042;42.626;23.382;2022-08-30T07:05:08;9.82;;;7.60;;
10005;SDS011;5042;42.626;23.382;2022-08-30T07:07:38;10.82;;;8.05;;
10005;SDS011;5042;42.626;23.382;2022-08-30T07:10:06;10.90;;;7.75;;
10005;SDS011;5042;42.626;23.382;2022-08-30T07:12:33;9.95;;;7.40;;
10005;SDS011;5042;42.626;23.382;2022-08-30T07:15:01;10.05;;;8.05;;
10005;SDS011;5042;42.626;23.382;2022-08-30T07:17:28;8.93;;;7.68;;
10005;SDS011;5042;42.626;23.382;2022-08-30T07:20:13;11.27;;;7.65;;
10005;SDS011;5042;42.626;23.382;2022-08-30T07:22:41;9.80;;;7.85;;
10005;SDS011;5042;42.626;23.382;2022-08-30T07:25:08;9.57;;;7.57;;
10005;SDS011;5042;42.626;23.382;2022-08-30T07:27:35;11.30;;;8.35;;
10005;SDS011;5042;42.626;23.382;2022-08-30T07:30:03;10.98;;;8.57;;
10005;SDS011;5042;42.626;23.382;2022-08-30T07:32:30;11.88;;;8.57;;
10005;SDS011;5042;42.626;23.382;2022-08-30T07:34:57;10.32;;;8.15;;
10005;SDS011;5042;42.626;23.382;2022-08-30T07:37:24;12.35;;;8.80;;
10005;SDS011;5042;42.626;23.382;2022-08-30T07:39:52;11.77;;;7.95;;
10005;SDS011;5042;42.626;23.382;2022-08-30T07:42:19;12.63;;;8.52;;
10005;SDS011;5042;42.626;23.382;2022-08-30T07:44:46;10.02;;;7.90;;
10005;SDS011;5042;42.626;23.382;2022-08-30T07:47:13;10.52;;;8.70;;
10005;SDS011;5042;42.626;23.382;2022-08-30T07:49:40;13.10;;;9.80;;
10005;SDS011;5042;42.626;23.382;2022-08-30T07:52:08;15.52;;;9.55;;
10005;SDS011;5042;42.626;23.382;2022-08-30T07:54:35;12.10;;;9.30;;
10005;SDS011;5042;42.626;23.382;2022-08-30T07:57:03;13.38;;;10.25;;
10005;SDS011;5042;42.626;23.382;2022-08-30T07:59:30;12.57;;;9.10;;
10005;SDS011;5042;42.626;23.382;2022-08-30T08:01:57;13.60;;;9.48;;
10005;SDS011;5042;42.626;23.382;2022-08-30T08:04:24;13.77;;;9.48;;
10005;SDS011;5042;42.626;23.382;2022-08-30T08:06:51;12.63;;;9.38;;
10005;SDS011;5042;42.626;23.382;2022-08-30T08:09:18;14.05;;;9.27;;
10005;SDS011;5042;42.626;23.382;2022-08-30T08:11:45;12.35;;;8.82;;
10005;SDS011;5042;42.626;23.382;2022-08-30T08:14:13;13.13;;;9.75;;
10005;SDS011;5042;42.626;23.382;2022-08-30T08:16:40;12.95;;;9.88;;
10005;SDS011;5042;42.626;23.382;2022-08-30T08:19:09;13.10;;;10.45;;
10005;SDS011;5042;42.626;23.382;2022-08-30T08:21:37;15.00;;;10.68;;
10005;SDS011;5042;42.626;23.382;2022-08-30T08:24:04;11.43;;;9.05;;
10005;SDS011;5042;42.626;23.382;2022-08-30T08:26:32;14.55;;;10.45;;
10005;SDS011;5042;42.626;23.382;2022-08-30T08:29:00;13.50;;;9.85;;
10005;SDS011;5042;42.626;23.382;2022-08-30T08:31:28;14.35;;;10.50;;
10005;SDS011;5042;42.626;23.382;2022-08-30T08:33:55;11.70;;;9.27;;
10005;SDS011;5042;42.626;23.382;2022-08-30T08:36:24;11.02;;;9.00;;
10005;SDS011;5042;42.626;23.382;2022-08-30T08:38:51;10.98;;;8.77;;
10005;SDS011;5042;42.626;23.382;2022-08-30T08:41:24;12.45;;;8.05;;
10005;SDS011;5042;42.626;23.382;2022-08-30T08:44:03;10.80;;;8.50;;
10005;SDS011;5042;42.626;23.382;2022-08-30T08:46:40;9.32;;;7.80;;
10005;SDS011;5042;42.626;23.382;2022-08-30T08:49:14;9.05;;;7.30;;
10005;SDS011;5042;42.626;23.382;2022-08-30T08:51:41;9.45;;;7.63;;
10005;SDS011;5042;42.626;23.382;2022-08-30T08:54:29;9.32;;;7.43;;
10005;SDS011;5042;42.626;23.382;2022-08-30T08:56:59;10.40;;;7.35;;
10005;SDS011;5042;42.626;23.382;2022-08-30T08:59:26;9.00;;;6.97;;
10005;SDS011;5042;42.626;23.382;2022-08-30T09:01:55;8.15;;;6.82;;
10005;SDS011;5042;42.626;23.382;2022-08-30T09:04:29;7.20;;;6.18;;
10005;SDS011;5042;42.626;23.382;2022-08-30T09:06:59;7.28;;;6.10;;
10005;SDS011;5042;42.626;23.382;2022-08-30T09:09:31;6.53;;;5.80;;
10005;SDS011;5042;42.626;23.382;2022-08-30T09:12:00;6.68;;;6.00;;
10005;SDS011;5042;42.626;23.382;2022-08-30T09:14:28;9.07;;;5.47;;
10005;SDS011;5042;42.626;23.382;2022-08-30T09:17:02;9.65;;;5.30;;
10005;SDS011;5042;42.626;23.382;2022-08-30T09:19:31;6.72;;;5.15;;
10005;SDS011;5042;42.626;23.382;2022-08-30T09:22:01;7.18;;;6.03;;
10005;SDS011;5042;42.626;23.382;2022-08-30T09:24:38;5.60;;;4.45;;
10005;SDS011;5042;42.626;23.382;2022-08-30T09:27:18;7.38;;;5.40;;
10005;SDS011;5042;42.626;23.382;2022-08-30T09:29:54;5.25;;;4.72;;
10005;SDS011;5042;42.626;23.382;2022-08-30T09:32:28;5.22;;;4.38;;
10005;SDS011;5042;42.626;23.382;2022-08-30T09:34:57;5.50;;;4.25;;
10005;SDS011;5042;42.626;23.382;2022-08-30T09:37:26;6.20;;;5.05;;
10005;SDS011;5042;42.626;23.382;2022-08-30T09:39:56;4.68;;;4.28;;
10005;SDS011;5042;42.626;23.382;2022-08-30T09:42:24;5.28;;;4.78;;
10005;SDS011;5042;42.626;23.382;2022-08-30T09:44:53;5.70;;;4.78;;
10005;SDS011;5042;42.626;23.382;2022-08-30T09:47:36;7.32;;;6.10;;
10005;SDS011;5042;42.626;23.382;2022-08-30T09:50:06;7.68;;;5.70;;
10005;SDS011;5042;42.626;23.382;2022-08-30T09:52:38;7.38;;;4.85;;
10005;SDS011;5042;42.626;23.382;2022-08-30T09:58:33;4.80;;;4.30;;
10005;SDS011;5042;42.626;23.382;2022-08-30T10:01:14;6.15;;;5.40;;
10005;SDS011;5042;42.626;23.382;2022-08-30T10:03:49;8.55;;;5.18;;
10005;SDS011;5042;42.626;23.382;2022-08-30T10:06:24;5.40;;;4.90;;
10005;SDS011;5042;42.626;23.382;2022-08-30T10:09:01;5.32;;;4.70;;
10005;SDS011;5042;42.626;23.382;2022-08-30T10:11:38;6.43;;;5.07;;
10005;SDS011;5042;42.626;23.382;2022-08-30T10:17:18;5.82;;;5.03;;
10005;SDS011;5042;42.626;23.382;2022-08-30T10:20:00;5.47;;;4.93;;
10005;SDS011;5042;42.626;23.382;2022-08-30T10:22:34;7.18;;;5.82;;
10005;SDS011;5042;42.626;23.382;2022-08-30T10:25:06;6.70;;;6.00;;
10005;SDS011;5042;42.626;23.382;2022-08-30T10:27:40;7.53;;;5.65;;
10005;SDS011;5042;42.626;23.382;2022-08-30T10:30:13;11.38;;;6.18;;
10005;SDS011;5042;42.626;23.382;2022-08-30T10:32:41;7.90;;;6.57;;
10005;SDS011;5042;42.626;23.382;2022-08-30T10:35:14;9.77;;;6.55;;
10005;SDS011;5042;42.626;23.382;2022-08-30T10:37:44;9.40;;;7.03;;
10005;SDS011;5042;42.626;23.382;2022-08-30T10:40:17;7.70;;;6.40;;
10005;SDS011;5042;42.626;23.382;2022-08-30T10:43:06;9.27;;;6.93;;
10005;SDS011;5042;42.626;23.382;2022-08-30T10:45:39;7.47;;;6.75;;
10005;SDS011;5042;42.626;23.382;2022-08-30T10:48:12;8.75;;;7.00;;
10005;SDS011;5042;42.626;23.382;2022-08-30T10:50:48;8.75;;;6.68;;
10005;SDS011;5042;42.626;23.382;2022-08-30T10:53:18;7.40;;;6.65;;
10005;SDS011;5042;42.626;23.382;2022-08-30T10:55:53;8.57;;;6.65;;
10005;SDS011;5042;42.626;23.382;2022-08-30T10:58:26;7.45;;;6.75;;
10005;SDS011;5042;42.626;23.382;2022-08-30T11:00:59;6.78;;;6.10;;
10005;SDS011;5042;42.626;23.382;2022-08-30T11:06:54;7.25;;;6.15;;
10005;SDS011;5042;42.626;23.382;2022-08-30T11:12:30;7.30;;;6.10;;
10005;SDS011;5042;42.626;23.382;2022-08-30T11:15:10;5.65;;;5.13;;
10005;SDS011;5042;42.626;23.382;2022-08-30T11:17:44;7.00;;;5.65;;
10005;SDS011;5042;42.626;23.382;2022-08-30T11:20:22;8.18;;;5.68;;
10005;SDS011;5042;42.626;23.382;2022-08-30T11:23:19;6.13;;;4.97;;
10005;SDS011;5042;42.626;23.382;2022-08-30T11:25:51;7.47;;;5.68;;
10005;SDS011;5042;42.626;23.382;2022-08-30T11:31:27;5.68;;;5.10;;
10005;SDS011;5042;42.626;23.382;2022-08-30T11:33:59;5.90;;;5.35;;
10005;SDS011;5042;42.626;23.382;2022-08-30T11:39:50;7.88;;;5.78;;
10005;SDS011;5042;42.626;23.382;2022-08-30T11:51:07;7.22;;;6.20;;
10005;SDS011;5042;42.626;23.382;2022-08-30T11:53:49;7.50;;;6.20;;
10005;SDS011;5042;42.626;23.382;2022-08-30T11:56:25;6.70;;;5.85;;
10005;SDS011;5042;42.626;23.382;2022-08-30T11:59:00;7.88;;;6.30;;
10005;SDS011;5042;42.626;23.382;2022-08-30T12:01:33;6.38;;;5.78;;
10005;SDS011;5042;42.626;23.382;2022-08-30T12:04:04;7.57;;;6.00;;
10005;SDS011;5042;42.626;23.382;2022-08-30T12:06:51;6.30;;;5.68;;
10005;SDS011;5042;42.626;23.382;2022-08-30T12:15:49;6.95;;;5.53;;
10005;SDS011;5042;42.626;23.382;2022-08-30T12:18:23;6.68;;;5.95;;
10005;SDS011;5042;42.626;23.382;2022-08-30T12:20:55;6.10;;;5.30;;
10005;SDS011;5042;42.626;23.382;2022-08-30T12:23:32;7.63;;;6.65;;
10005;SDS011;5042;42.626;23.382;2022-08-30T12:26:11;8.20;;;6.32;;
10005;SDS011;5042;42.626;23.382;2022-08-30T12:28:42;7.72;;;6.55;;
10005;SDS011;5042;42.626;23.382;2022-08-30T12:31:14;8.85;;;6.50;;
10005;SDS011;5042;42.626;23.382;2022-08-30T12:33:44;6.90;;;6.10;;
10005;SDS011;5042;42.626;23.382;2022-08-30T12:36:14;7.30;;;6.60;;
10005;SDS011;5042;42.626;23.382;2022-08-30T12:39:03;8.02;;;6.35;;
10005;SDS011;5042;42.626;23.382;2022-08-30T12:41:32;7.90;;;6.45;;
10005;SDS011;5042;42.626;23.382;2022-08-30T12:44:00;11.45;;;6.07;;
10005;SDS011;5042;42.626;23.382;2022-08-30T12:46:28;7.13;;;6.43;;
10005;SDS011;5042;42.626;23.382;2022-08-30T12:48:56;9.15;;;6.18;;
10005;SDS011;5042;42.626;23.382;2022-08-30T12:51:25;8.43;;;6.07;;
10005;SDS011;5042;42.626;23.382;2022-08-30T12:54:00;9.18;;;6.50;;
10005;SDS011;5042;42.626;23.382;2022-08-30T12:56:44;7.50;;;6.13;;
10005;SDS011;5042;42.626;23.382;2022-08-30T13:02:09;10.27;;;6.38;;
10005;SDS011;5042;42.626;23.382;2022-08-30T13:04:38;6.80;;;5.82;;
10005;SDS011;5042;42.626;23.382;2022-08-30T13:07:05;6.93;;;5.75;;
10005;SDS011;5042;42.626;23.382;2022-08-30T13:09:33;8.13;;;6.18;;
10005;SDS011;5042;42.626;23.382;2022-08-30T13:12:03;6.47;;;5.75;;
10005;SDS011;5042;42.626;23.382;2022-08-30T13:14:35;9.90;;;6.57;;
10005;SDS011;5042;42.626;23.382;2022-08-30T13:17:06;9.02;;;6.25;;
10005;SDS011;5042;42.626;23.382;2022-08-30T13:19:36;7.78;;;6.35;;
10005;SDS011;5042;42.626;23.382;2022-08-30T13:22:05;7.57;;;6.78;;
10005;SDS011;5042;42.626;23.382;2022-08-30T13:24:49;8.63;;;6.57;;
10005;SDS011;5042;42.626;23.382;2022-08-30T13:27:15;8.98;;;5.95;;
10005;SDS011;5042;42.626;23.382;2022-08-30T13:29:43;8.43;;;6.43;;
10005;SDS011;5042;42.626;23.382;2022-08-30T13:32:11;8.40;;;6.43;;
10005;SDS011;5042;42.626;23.382;2022-08-30T13:34:39;9.93;;;6.20;;
10005;SDS011;5042;42.626;23.382;2022-08-30T13:37:05;11.48;;;6.53;;
10005;SDS011;5042;42.626;23.382;2022-08-30T13:39:33;7.10;;;6.20;;
10005;SDS011;5042;42.626;23.382;2022-08-30T13:42:00;5.88;;;5.28;;
10005;SDS011;5042;42.626;23.382;2022-08-30T13:44:26;8.52;;;6.68;;
10005;SDS011;5042;42.626;23.382;2022-08-30T13:46:54;8.73;;;6.15;;
10005;SDS011;5042;42.626;23.382;2022-08-30T13:49:24;7.60;;;5.90;;
10005;SDS011;5042;42.626;23.382;2022-08-30T13:51:52;6.93;;;6.00;;
10005;SDS011;5042;42.626;23.382;2022-08-30T13:54:20;7.43;;;6.45;;
10005;SDS011;5042;42.626;23.382;2022-08-30T13:56:48;10.75;;;5.95;;
10005;SDS011;5042;42.626;23.382;2022-08-30T13:59:16;7.60;;;6.55;;
10005;SDS011;5042;42.626;23.382;2022-08-30T14:01:43;7.28;;;6.20;;
10005;SDS011;5042;42.626;23.382;2022-08-30T14:04:11;7.22;;;5.57;;
10005;SDS011;5042;42.626;23.382;2022-08-30T14:06:39;7.07;;;5.80;;
10005;SDS011;5042;42.626;23.382;2022-08-30T14:09:06;6.93;;;6.22;;
10005;SDS011;5042;42.626;23.382;2022-08-30T14:11:34;6.93;;;5.60;;
10005;SDS011;5042;42.626;23.382;2022-08-30T14:14:02;9.52;;;5.63;;
10005;SDS011;5042;42.626;23.382;2022-08-30T14:16:30;6.03;;;4.97;;
10005;SDS011;5042;42.626;23.382;2022-08-30T14:18:57;6.40;;;5.50;;
10005;SDS011;5042;42.626;23.382;2022-08-30T14:21:24;7.18;;;6.03;;
10005;SDS011;5042;42.626;23.382;2022-08-30T14:23:53;7.40;;;5.78;;
10005;SDS011;5042;42.626;23.382;2022-08-30T14:26:22;10.52;;;6.00;;
10005;SDS011;5042;42.626;23.382;2022-08-30T14:28:52;7.78;;;6.97;;
10005;SDS011;5042;42.626;23.382;2022-08-30T14:31:19;8.18;;;7.18;;
10005;SDS011;5042;42.626;23.382;2022-08-30T14:33:46;7.50;;;6.72;;
10005;SDS011;5042;42.626;23.382;2022-08-30T14:36:13;10.43;;;6.28;;
10005;SDS011;5042;42.626;23.382;2022-08-30T14:38:40;7.07;;;6.00;;
10005;SDS011;5042;42.626;23.382;2022-08-30T14:41:08;8.00;;;6.18;;
10005;SDS011;5042;42.626;23.382;2022-08-30T14:43:35;7.47;;;6.50;;
10005;SDS011;5042;42.626;23.382;2022-08-30T14:46:04;7.18;;;6.05;;
10005;SDS011;5042;42.626;23.382;2022-08-30T14:48:31;7.18;;;6.45;;
10005;SDS011;5042;42.626;23.382;2022-08-30T14:50:58;7.68;;;6.22;;
10005;SDS011;5042;42.626;23.382;2022-08-30T14:53:25;7.03;;;6.32;;
10005;SDS011;5042;42.626;23.382;2022-08-30T14:55:52;8.25;;;7.15;;
10005;SDS011;5042;42.626;23.382;2022-08-30T14:58:20;9.30;;;6.65;;
10005;SDS011;5042;42.626;23.382;2022-08-30T15:00:48;7.13;;;6.20;;
10005;SDS011;5042;42.626;23.382;2022-08-30T15:03:15;8.07;;;6.50;;
10005;SDS011;5042;42.626;23.382;2022-08-30T15:05:46;9.52;;;6.07;;
10005;SDS011;5042;42.626;23.382;2022-08-30T15:08:14;8.25;;;6.95;;
10005;SDS011;5042;42.626;23.382;2022-08-30T15:10:41;6.88;;;6.18;;
10005;SDS011;5042;42.626;23.382;2022-08-30T15:13:08;7.35;;;6.28;;
10005;SDS011;5042;42.626;23.382;2022-08-30T15:15:37;7.20;;;6.07;;
10005;SDS011;5042;42.626;23.382;2022-08-30T15:18:06;9.30;;;6.32;;
10005;SDS011;5042;42.626;23.382;2022-08-30T15:20:33;8.48;;;6.82;;
10005;SDS011;5042;42.626;23.382;2022-08-30T15:23:00;7.93;;;7.10;;
10005;SDS011;5042;42.626;23.382;2022-08-30T15:25:27;8.15;;;6.68;;
10005;SDS011;5042;42.626;23.382;2022-08-30T15:27:54;10.90;;;7.15;;
10005;SDS011;5042;42.626;23.382;2022-08-30T15:30:20;9.00;;;6.53;;
10005;SDS011;5042;42.626;23.382;2022-08-30T15:32:48;10.45;;;6.95;;
10005;SDS011;5042;42.626;23.382;2022-08-30T15:35:15;11.02;;;7.20;;
10005;SDS011;5042;42.626;23.382;2022-08-30T15:37:42;7.47;;;6.68;;